Main page
METAR-TAF:

METAR-TAF

Airports :

Fa'a'ā International Airport

Tahiti, French Polynesia

latitude: 17-33S, longitude: 149-37W, elevation: 2 m

Current weather observation

The report was made 45 minutes ago, at 17:30 UTC
Wind 4 kt from the Southwest
Temperature 27°C
Humidity 70%
Pressure 1014 hPa
Visibility 10 km or more
Few clouds at a height of 2300 ft
Broken clouds at a height of 28000 ft

METAR: NTAA 201730Z 23004KT 9999 FEW023 BKN280 27/21 Q1014 NOSIG

Time: 08:15 (18:15 UTC)

Forecast

The report was made 1 hour and 15 minutes ago, at 17:00 UTC
Forecast valid from 20 at 18 UTC to 21 at 24 UTC
Wind 5 kt from variable directions
Visibility 10 km or more
Few clouds at a height of 2000 ft
Broken clouds at a height of 5000 ft
Becoming
from 20 at 18 UTC to 20 at 20 UTC
Wind 15 kt from the Northeast

TAF: NTAA 201700Z 2018/2124 VRB05KT 9999 FEW020 BKN050 BECMG 2018/2020 05015KT

Weather observations and forecasts of more than 4000 airports (METAR and TAF reports).

The available stations are represented by yellow and red dots on the map.

Hover mouse over dot to see the name of the station.

Then click to see weather observations and forecasts.

To change the map : click on the green buttons with a black cross to zoom in, on the green button with a dash to zoom out, or on the green arrows for adjacent maps.


METAR-TAF: